sensor_id;sensor_type;location;lat;lon;timestamp;P1;durP1;ratioP1;P2;durP2;ratioP2
40807;SDS011;26523;52.504;13.498;2022-12-16T00:02:18;17.00;;;10.38;;
40807;SDS011;26523;52.504;13.498;2022-12-16T00:04:44;21.42;;;8.40;;
40807;SDS011;26523;52.504;13.498;2022-12-16T00:07:10;18.95;;;8.75;;
40807;SDS011;26523;52.504;13.498;2022-12-16T00:09:35;13.93;;;7.50;;
40807;SDS011;26523;52.504;13.498;2022-12-16T00:12:01;26.35;;;9.20;;
40807;SDS011;26523;52.504;13.498;2022-12-16T00:14:27;16.02;;;8.23;;
40807;SDS011;26523;52.504;13.498;2022-12-16T00:16:53;19.33;;;10.55;;
40807;SDS011;26523;52.504;13.498;2022-12-16T00:19:18;15.30;;;6.85;;
40807;SDS011;26523;52.504;13.498;2022-12-16T00:21:44;14.40;;;7.53;;
40807;SDS011;26523;52.504;13.498;2022-12-16T00:24:10;18.63;;;8.40;;
40807;SDS011;26523;52.504;13.498;2022-12-16T00:26:35;16.92;;;6.55;;
40807;SDS011;26523;52.504;13.498;2022-12-16T00:29:01;17.25;;;7.75;;
40807;SDS011;26523;52.504;13.498;2022-12-16T00:31:29;19.50;;;10.15;;
40807;SDS011;26523;52.504;13.498;2022-12-16T00:33:56;33.10;;;10.05;;
40807;SDS011;26523;52.504;13.498;2022-12-16T00:36:22;25.25;;;10.15;;
40807;SDS011;26523;52.504;13.498;2022-12-16T00:38:50;17.85;;;8.77;;
40807;SDS011;26523;52.504;13.498;2022-12-16T00:41:16;13.95;;;6.82;;
40807;SDS011;26523;52.504;13.498;2022-12-16T00:43:42;11.23;;;7.18;;
40807;SDS011;26523;52.504;13.498;2022-12-16T00:46:08;23.95;;;9.18;;
40807;SDS011;26523;52.504;13.498;2022-12-16T00:48:34;17.95;;;6.80;;
40807;SDS011;26523;52.504;13.498;2022-12-16T00:50:59;10.32;;;6.85;;
40807;SDS011;26523;52.504;13.498;2022-12-16T00:53:25;18.98;;;7.78;;
40807;SDS011;26523;52.504;13.498;2022-12-16T00:55:51;17.40;;;9.00;;
40807;SDS011;26523;52.504;13.498;2022-12-16T01:01:02;23.33;;;7.28;;
40807;SDS011;26523;52.504;13.498;2022-12-16T01:03:28;16.70;;;9.10;;
40807;SDS011;26523;52.504;13.498;2022-12-16T01:05:54;16.52;;;6.70;;
40807;SDS011;26523;52.504;13.498;2022-12-16T01:08:20;23.30;;;8.15;;
40807;SDS011;26523;52.504;13.498;2022-12-16T01:10:49;14.80;;;7.15;;
40807;SDS011;26523;52.504;13.498;2022-12-16T01:13:16;19.63;;;8.25;;
40807;SDS011;26523;52.504;13.498;2022-12-16T01:15:41;18.88;;;10.27;;
40807;SDS011;26523;52.504;13.498;2022-12-16T01:18:07;23.58;;;9.30;;
40807;SDS011;26523;52.504;13.498;2022-12-16T01:20:33;24.30;;;7.30;;
40807;SDS011;26523;52.504;13.498;2022-12-16T01:22:59;24.85;;;8.27;;
40807;SDS011;26523;52.504;13.498;2022-12-16T01:25:25;15.65;;;7.97;;
40807;SDS011;26523;52.504;13.498;2022-12-16T01:27:51;20.75;;;7.18;;
40807;SDS011;26523;52.504;13.498;2022-12-16T01:30:16;22.42;;;8.23;;
40807;SDS011;26523;52.504;13.498;2022-12-16T01:32:42;23.88;;;7.63;;
40807;SDS011;26523;52.504;13.498;2022-12-16T01:35:08;10.80;;;6.15;;
40807;SDS011;26523;52.504;13.498;2022-12-16T01:37:34;15.80;;;8.30;;
40807;SDS011;26523;52.504;13.498;2022-12-16T01:40:00;22.38;;;8.25;;
40807;SDS011;26523;52.504;13.498;2022-12-16T01:42:26;20.75;;;9.85;;
40807;SDS011;26523;52.504;13.498;2022-12-16T01:44:56;11.30;;;8.38;;
40807;SDS011;26523;52.504;13.498;2022-12-16T01:48:00;13.70;;;7.25;;
40807;SDS011;26523;52.504;13.498;2022-12-16T01:50:46;14.43;;;7.57;;
40807;SDS011;26523;52.504;13.498;2022-12-16T01:53:14;18.42;;;7.65;;
40807;SDS011;26523;52.504;13.498;2022-12-16T01:55:40;22.08;;;9.20;;
40807;SDS011;26523;52.504;13.498;2022-12-16T01:58:16;15.15;;;6.20;;
40807;SDS011;26523;52.504;13.498;2022-12-16T02:00:45;17.80;;;9.48;;
40807;SDS011;26523;52.504;13.498;2022-12-16T02:03:10;24.05;;;6.50;;
40807;SDS011;26523;52.504;13.498;2022-12-16T02:05:40;12.07;;;5.20;;
40807;SDS011;26523;52.504;13.498;2022-12-16T02:15:40;14.65;;;8.93;;
40807;SDS011;26523;52.504;13.498;2022-12-16T02:29:03;13.57;;;5.35;;
40807;SDS011;26523;52.504;13.498;2022-12-16T02:34:51;11.05;;;7.28;;
40807;SDS011;26523;52.504;13.498;2022-12-16T02:40:18;11.23;;;5.68;;
40807;SDS011;26523;52.504;13.498;2022-12-16T02:42:48;17.45;;;7.78;;
40807;SDS011;26523;52.504;13.498;2022-12-16T02:45:19;19.17;;;8.32;;
40807;SDS011;26523;52.504;13.498;2022-12-16T02:47:49;14.80;;;8.38;;
40807;SDS011;26523;52.504;13.498;2022-12-16T02:52:52;18.65;;;8.35;;
40807;SDS011;26523;52.504;13.498;2022-12-16T02:55:19;12.98;;;5.95;;
40807;SDS011;26523;52.504;13.498;2022-12-16T03:07:25;23.40;;;6.38;;
40807;SDS011;26523;52.504;13.498;2022-12-16T03:09:53;28.83;;;8.98;;
40807;SDS011;26523;52.504;13.498;2022-12-16T03:12:20;14.77;;;8.20;;
40807;SDS011;26523;52.504;13.498;2022-12-16T03:14:49;12.40;;;7.63;;
40807;SDS011;26523;52.504;13.498;2022-12-16T03:17:17;18.98;;;7.95;;
40807;SDS011;26523;52.504;13.498;2022-12-16T03:19:47;13.73;;;5.45;;
40807;SDS011;26523;52.504;13.498;2022-12-16T03:22:17;19.27;;;8.63;;
40807;SDS011;26523;52.504;13.498;2022-12-16T03:24:46;14.48;;;8.82;;
40807;SDS011;26523;52.504;13.498;2022-12-16T03:27:17;20.70;;;8.50;;
40807;SDS011;26523;52.504;13.498;2022-12-16T03:30:08;13.88;;;7.28;;
40807;SDS011;26523;52.504;13.498;2022-12-16T03:32:48;21.40;;;6.93;;
40807;SDS011;26523;52.504;13.498;2022-12-16T03:35:27;20.35;;;9.95;;
40807;SDS011;26523;52.504;13.498;2022-12-16T03:40:34;13.02;;;6.10;;
40807;SDS011;26523;52.504;13.498;2022-12-16T03:43:02;14.80;;;7.10;;
40807;SDS011;26523;52.504;13.498;2022-12-16T03:45:30;16.88;;;6.75;;
40807;SDS011;26523;52.504;13.498;2022-12-16T03:48:01;14.38;;;6.97;;
40807;SDS011;26523;52.504;13.498;2022-12-16T03:50:28;29.33;;;10.05;;
40807;SDS011;26523;52.504;13.498;2022-12-16T03:52:58;11.63;;;7.03;;
40807;SDS011;26523;52.504;13.498;2022-12-16T03:55:25;6.47;;;5.10;;
40807;SDS011;26523;52.504;13.498;2022-12-16T03:57:51;10.77;;;7.05;;
40807;SDS011;26523;52.504;13.498;2022-12-16T04:00:17;20.80;;;8.32;;
40807;SDS011;26523;52.504;13.498;2022-12-16T04:02:44;14.73;;;8.05;;
40807;SDS011;26523;52.504;13.498;2022-12-16T04:05:10;20.48;;;7.70;;
40807;SDS011;26523;52.504;13.498;2022-12-16T04:07:35;16.00;;;6.60;;
40807;SDS011;26523;52.504;13.498;2022-12-16T04:10:02;18.67;;;9.23;;
40807;SDS011;26523;52.504;13.498;2022-12-16T04:12:28;10.85;;;4.90;;
40807;SDS011;26523;52.504;13.498;2022-12-16T04:15:12;18.08;;;7.88;;
40807;SDS011;26523;52.504;13.498;2022-12-16T04:17:56;18.15;;;6.53;;
40807;SDS011;26523;52.504;13.498;2022-12-16T04:20:42;15.50;;;6.95;;
40807;SDS011;26523;52.504;13.498;2022-12-16T04:23:29;14.00;;;6.88;;
40807;SDS011;26523;52.504;13.498;2022-12-16T04:26:17;19.83;;;9.30;;
40807;SDS011;26523;52.504;13.498;2022-12-16T04:28:43;11.18;;;6.03;;
40807;SDS011;26523;52.504;13.498;2022-12-16T04:31:09;20.13;;;9.07;;
40807;SDS011;26523;52.504;13.498;2022-12-16T04:33:35;23.92;;;8.13;;
40807;SDS011;26523;52.504;13.498;2022-12-16T04:36:19;21.40;;;6.35;;
40807;SDS011;26523;52.504;13.498;2022-12-16T04:39:04;16.73;;;9.98;;
40807;SDS011;26523;52.504;13.498;2022-12-16T04:41:51;12.23;;;7.93;;
40807;SDS011;26523;52.504;13.498;2022-12-16T04:44:38;19.17;;;8.68;;
40807;SDS011;26523;52.504;13.498;2022-12-16T04:50:07;10.80;;;6.13;;
40807;SDS011;26523;52.504;13.498;2022-12-16T04:52:52;16.35;;;5.50;;
40807;SDS011;26523;52.504;13.498;2022-12-16T04:55:36;10.63;;;5.00;;
40807;SDS011;26523;52.504;13.498;2022-12-16T05:01:05;9.32;;;5.20;;
40807;SDS011;26523;52.504;13.498;2022-12-16T05:03:50;18.75;;;9.00;;
40807;SDS011;26523;52.504;13.498;2022-12-16T05:06:34;23.08;;;7.18;;
40807;SDS011;26523;52.504;13.498;2022-12-16T05:09:18;17.13;;;6.35;;
40807;SDS011;26523;52.504;13.498;2022-12-16T05:12:02;13.63;;;6.07;;
40807;SDS011;26523;52.504;13.498;2022-12-16T05:14:47;8.85;;;5.60;;
40807;SDS011;26523;52.504;13.498;2022-12-16T05:17:31;12.32;;;6.13;;
40807;SDS011;26523;52.504;13.498;2022-12-16T05:20:15;15.35;;;7.35;;
40807;SDS011;26523;52.504;13.498;2022-12-16T05:23:00;15.50;;;6.55;;
40807;SDS011;26523;52.504;13.498;2022-12-16T05:28:28;17.67;;;7.18;;
40807;SDS011;26523;52.504;13.498;2022-12-16T05:31:13;17.20;;;5.57;;
40807;SDS011;26523;52.504;13.498;2022-12-16T05:33:57;12.85;;;7.28;;
40807;SDS011;26523;52.504;13.498;2022-12-16T05:36:42;10.65;;;5.97;;
40807;SDS011;26523;52.504;13.498;2022-12-16T05:39:26;15.23;;;6.90;;
40807;SDS011;26523;52.504;13.498;2022-12-16T05:42:10;18.10;;;7.97;;
40807;SDS011;26523;52.504;13.498;2022-12-16T05:44:54;18.48;;;7.30;;
40807;SDS011;26523;52.504;13.498;2022-12-16T05:47:38;20.95;;;6.38;;
40807;SDS011;26523;52.504;13.498;2022-12-16T05:50:23;15.80;;;7.68;;
40807;SDS011;26523;52.504;13.498;2022-12-16T05:53:07;13.88;;;5.90;;
40807;SDS011;26523;52.504;13.498;2022-12-16T05:55:52;21.38;;;6.70;;
40807;SDS011;26523;52.504;13.498;2022-12-16T05:58:41;14.70;;;6.28;;
40807;SDS011;26523;52.504;13.498;2022-12-16T06:01:25;10.82;;;6.65;;
40807;SDS011;26523;52.504;13.498;2022-12-16T06:07:01;10.70;;;4.60;;
40807;SDS011;26523;52.504;13.498;2022-12-16T06:12:30;18.05;;;6.90;;
40807;SDS011;26523;52.504;13.498;2022-12-16T06:15:14;18.88;;;8.98;;
40807;SDS011;26523;52.504;13.498;2022-12-16T06:17:58;23.88;;;8.77;;
40807;SDS011;26523;52.504;13.498;2022-12-16T06:20:42;23.25;;;6.00;;
40807;SDS011;26523;52.504;13.498;2022-12-16T06:23:27;16.90;;;7.18;;
40807;SDS011;26523;52.504;13.498;2022-12-16T06:26:11;15.88;;;7.50;;
40807;SDS011;26523;52.504;13.498;2022-12-16T06:28:56;19.25;;;7.38;;
40807;SDS011;26523;52.504;13.498;2022-12-16T06:31:40;18.58;;;7.15;;
40807;SDS011;26523;52.504;13.498;2022-12-16T06:34:24;15.77;;;8.52;;
40807;SDS011;26523;52.504;13.498;2022-12-16T06:37:08;14.68;;;9.75;;
40807;SDS011;26523;52.504;13.498;2022-12-16T06:39:53;20.10;;;9.80;;
40807;SDS011;26523;52.504;13.498;2022-12-16T06:42:40;16.95;;;6.95;;
40807;SDS011;26523;52.504;13.498;2022-12-16T06:45:24;16.92;;;8.45;;
40807;SDS011;26523;52.504;13.498;2022-12-16T06:50:53;19.05;;;8.50;;
40807;SDS011;26523;52.504;13.498;2022-12-16T06:53:37;17.98;;;6.60;;
40807;SDS011;26523;52.504;13.498;2022-12-16T06:56:22;19.83;;;8.73;;
40807;SDS011;26523;52.504;13.498;2022-12-16T06:59:06;12.68;;;6.68;;
40807;SDS011;26523;52.504;13.498;2022-12-16T07:01:50;21.70;;;9.15;;
40807;SDS011;26523;52.504;13.498;2022-12-16T07:04:34;16.08;;;6.90;;
40807;SDS011;26523;52.504;13.498;2022-12-16T07:07:18;13.45;;;7.65;;
40807;SDS011;26523;52.504;13.498;2022-12-16T07:10:02;13.60;;;6.22;;
40807;SDS011;26523;52.504;13.498;2022-12-16T07:15:31;13.27;;;4.90;;
40807;SDS011;26523;52.504;13.498;2022-12-16T07:18:15;15.90;;;8.35;;
40807;SDS011;26523;52.504;13.498;2022-12-16T07:20:59;20.65;;;9.63;;
40807;SDS011;26523;52.504;13.498;2022-12-16T07:23:43;13.07;;;6.78;;
40807;SDS011;26523;52.504;13.498;2022-12-16T07:26:27;15.93;;;8.70;;
40807;SDS011;26523;52.504;13.498;2022-12-16T07:29:11;13.05;;;7.10;;
40807;SDS011;26523;52.504;13.498;2022-12-16T07:31:55;23.45;;;8.02;;
40807;SDS011;26523;52.504;13.498;2022-12-16T07:34:39;15.65;;;6.75;;
40807;SDS011;26523;52.504;13.498;2022-12-16T07:37:23;11.43;;;5.72;;
40807;SDS011;26523;52.504;13.498;2022-12-16T07:40:08;17.63;;;8.10;;
40807;SDS011;26523;52.504;13.498;2022-12-16T07:42:52;10.95;;;6.15;;
40807;SDS011;26523;52.504;13.498;2022-12-16T07:45:36;11.65;;;6.63;;
40807;SDS011;26523;52.504;13.498;2022-12-16T07:48:20;21.95;;;8.38;;
40807;SDS011;26523;52.504;13.498;2022-12-16T07:51:05;27.80;;;9.77;;
40807;SDS011;26523;52.504;13.498;2022-12-16T07:53:49;15.30;;;7.10;;
40807;SDS011;26523;52.504;13.498;2022-12-16T07:56:33;20.08;;;8.05;;
40807;SDS011;26523;52.504;13.498;2022-12-16T07:59:17;14.63;;;7.30;;
40807;SDS011;26523;52.504;13.498;2022-12-16T08:02:02;25.02;;;8.40;;
40807;SDS011;26523;52.504;13.498;2022-12-16T08:04:46;14.40;;;9.00;;
40807;SDS011;26523;52.504;13.498;2022-12-16T08:07:30;12.23;;;5.13;;
40807;SDS011;26523;52.504;13.498;2022-12-16T08:10:15;32.80;;;8.60;;
40807;SDS011;26523;52.504;13.498;2022-12-16T08:13:00;13.93;;;8.77;;
40807;SDS011;26523;52.504;13.498;2022-12-16T08:15:45;23.35;;;8.23;;
40807;SDS011;26523;52.504;13.498;2022-12-16T08:18:29;16.13;;;7.68;;
40807;SDS011;26523;52.504;13.498;2022-12-16T08:21:14;17.15;;;7.88;;
40807;SDS011;26523;52.504;13.498;2022-12-16T08:23:58;16.75;;;7.00;;
40807;SDS011;26523;52.504;13.498;2022-12-16T08:26:42;18.40;;;8.50;;
40807;SDS011;26523;52.504;13.498;2022-12-16T08:29:26;29.52;;;10.43;;
40807;SDS011;26523;52.504;13.498;2022-12-16T08:32:11;17.63;;;9.13;;
40807;SDS011;26523;52.504;13.498;2022-12-16T08:34:56;16.42;;;6.80;;
40807;SDS011;26523;52.504;13.498;2022-12-16T08:37:40;13.38;;;7.00;;
40807;SDS011;26523;52.504;13.498;2022-12-16T08:40:24;18.65;;;8.93;;
40807;SDS011;26523;52.504;13.498;2022-12-16T08:43:08;21.30;;;10.00;;
40807;SDS011;26523;52.504;13.498;2022-12-16T08:45:53;31.75;;;10.68;;
40807;SDS011;26523;52.504;13.498;2022-12-16T08:48:38;17.45;;;7.15;;
40807;SDS011;26523;52.504;13.498;2022-12-16T08:51:22;20.13;;;8.43;;
40807;SDS011;26523;52.504;13.498;2022-12-16T08:54:06;24.00;;;10.55;;
40807;SDS011;26523;52.504;13.498;2022-12-16T08:56:50;22.17;;;8.98;;
40807;SDS011;26523;52.504;13.498;2022-12-16T08:59:34;26.63;;;9.18;;
40807;SDS011;26523;52.504;13.498;2022-12-16T09:02:19;24.08;;;10.05;;
40807;SDS011;26523;52.504;13.498;2022-12-16T09:05:03;21.95;;;8.05;;
40807;SDS011;26523;52.504;13.498;2022-12-16T09:07:48;28.90;;;11.38;;
40807;SDS011;26523;52.504;13.498;2022-12-16T09:10:32;24.48;;;12.35;;
40807;SDS011;26523;52.504;13.498;2022-12-16T09:13:16;20.10;;;6.43;;
40807;SDS011;26523;52.504;13.498;2022-12-16T09:16:00;19.77;;;10.23;;
40807;SDS011;26523;52.504;13.498;2022-12-16T09:18:44;20.48;;;8.65;;
40807;SDS011;26523;52.504;13.498;2022-12-16T09:21:29;41.83;;;13.65;;
40807;SDS011;26523;52.504;13.498;2022-12-16T09:24:13;22.95;;;8.43;;
40807;SDS011;26523;52.504;13.498;2022-12-16T09:26:57;20.25;;;7.78;;
40807;SDS011;26523;52.504;13.498;2022-12-16T09:29:41;21.63;;;12.80;;
40807;SDS011;26523;52.504;13.498;2022-12-16T09:32:25;31.45;;;11.27;;
40807;SDS011;26523;52.504;13.498;2022-12-16T09:37:54;27.65;;;10.88;;
40807;SDS011;26523;52.504;13.498;2022-12-16T09:40:39;30.85;;;13.15;;
40807;SDS011;26523;52.504;13.498;2022-12-16T09:46:51;19.27;;;7.70;;
40807;SDS011;26523;52.504;13.498;2022-12-16T09:49:51;30.05;;;9.43;;
40807;SDS011;26523;52.504;13.498;2022-12-16T09:52:59;21.67;;;10.45;;
40807;SDS011;26523;52.504;13.498;2022-12-16T09:55:43;32.42;;;11.00;;
40807;SDS011;26523;52.504;13.498;2022-12-16T09:58:31;25.13;;;11.48;;
40807;SDS011;26523;52.504;13.498;2022-12-16T10:01:25;22.65;;;10.50;;
40807;SDS011;26523;52.504;13.498;2022-12-16T10:04:12;27.50;;;10.63;;
40807;SDS011;26523;52.504;13.498;2022-12-16T10:06:57;32.70;;;12.27;;
40807;SDS011;26523;52.504;13.498;2022-12-16T10:18:55;41.35;;;12.52;;
40807;SDS011;26523;52.504;13.498;2022-12-16T10:27:49;29.15;;;10.82;;
40807;SDS011;26523;52.504;13.498;2022-12-16T10:30:34;39.30;;;14.63;;
40807;SDS011;26523;52.504;13.498;2022-12-16T10:33:20;22.65;;;9.73;;
40807;SDS011;26523;52.504;13.498;2022-12-16T10:36:15;39.80;;;12.05;;
40807;SDS011;26523;52.504;13.498;2022-12-16T10:39:14;33.40;;;14.07;;
40807;SDS011;26523;52.504;13.498;2022-12-16T10:45:16;24.00;;;11.90;;
40807;SDS011;26523;52.504;13.498;2022-12-16T10:48:02;29.67;;;13.75;;
40807;SDS011;26523;52.504;13.498;2022-12-16T10:50:46;32.30;;;12.32;;
40807;SDS011;26523;52.504;13.498;2022-12-16T10:53:30;33.17;;;13.10;;
40807;SDS011;26523;52.504;13.498;2022-12-16T10:59:19;37.92;;;14.73;;
40807;SDS011;26523;52.504;13.498;2022-12-16T11:02:04;27.75;;;13.85;;
40807;SDS011;26523;52.504;13.498;2022-12-16T11:04:57;31.92;;;12.18;;
40807;SDS011;26523;52.504;13.498;2022-12-16T11:17:26;34.00;;;13.93;;
40807;SDS011;26523;52.504;13.498;2022-12-16T11:26:05;24.27;;;10.35;;
40807;SDS011;26523;52.504;13.498;2022-12-16T11:29:01;29.20;;;10.15;;
40807;SDS011;26523;52.504;13.498;2022-12-16T11:31:49;24.20;;;11.25;;
40807;SDS011;26523;52.504;13.498;2022-12-16T11:34:38;24.95;;;9.57;;
40807;SDS011;26523;52.504;13.498;2022-12-16T11:37:24;22.80;;;9.85;;
40807;SDS011;26523;52.504;13.498;2022-12-16T11:40:15;29.60;;;12.98;;
40807;SDS011;26523;52.504;13.498;2022-12-16T11:43:04;32.38;;;11.93;;
40807;SDS011;26523;52.504;13.498;2022-12-16T11:45:50;32.25;;;14.30;;
40807;SDS011;26523;52.504;13.498;2022-12-16T11:48:37;31.55;;;10.88;;
40807;SDS011;26523;52.504;13.498;2022-12-16T11:51:27;33.75;;;11.80;;
40807;SDS011;26523;52.504;13.498;2022-12-16T11:54:22;24.63;;;12.20;;
40807;SDS011;26523;52.504;13.498;2022-12-16T11:57:19;19.75;;;9.60;;
40807;SDS011;26523;52.504;13.498;2022-12-16T12:00:15;35.53;;;11.52;;
40807;SDS011;26523;52.504;13.498;2022-12-16T12:03:03;35.80;;;11.52;;
40807;SDS011;26523;52.504;13.498;2022-12-16T12:06:28;23.73;;;10.25;;
40807;SDS011;26523;52.504;13.498;2022-12-16T12:09:30;38.38;;;12.70;;
40807;SDS011;26523;52.504;13.498;2022-12-16T12:12:24;28.25;;;12.00;;
40807;SDS011;26523;52.504;13.498;2022-12-16T12:24:52;24.95;;;9.32;;
40807;SDS011;26523;52.504;13.498;2022-12-16T12:30:43;23.80;;;10.48;;
40807;SDS011;26523;52.504;13.498;2022-12-16T12:33:47;28.30;;;10.40;;
40807;SDS011;26523;52.504;13.498;2022-12-16T12:36:45;24.50;;;10.18;;
40807;SDS011;26523;52.504;13.498;2022-12-16T12:39:45;24.80;;;10.38;;
40807;SDS011;26523;52.504;13.498;2022-12-16T12:42:41;26.90;;;9.13;;
40807;SDS011;26523;52.504;13.498;2022-12-16T12:57:17;25.02;;;11.13;;
40807;SDS011;26523;52.504;13.498;2022-12-16T13:00:05;37.28;;;12.30;;
40807;SDS011;26523;52.504;13.498;2022-12-16T13:06:14;26.52;;;11.13;;
40807;SDS011;26523;52.504;13.498;2022-12-16T13:08:59;28.48;;;12.30;;
40807;SDS011;26523;52.504;13.498;2022-12-16T13:15:10;30.27;;;11.10;;
40807;SDS011;26523;52.504;13.498;2022-12-16T13:27:26;39.00;;;11.30;;
40807;SDS011;26523;52.504;13.498;2022-12-16T13:33:00;18.35;;;9.98;;
40807;SDS011;26523;52.504;13.498;2022-12-16T13:35:55;28.63;;;11.30;;
40807;SDS011;26523;52.504;13.498;2022-12-16T13:39:03;27.83;;;11.48;;
40807;SDS011;26523;52.504;13.498;2022-12-16T13:45:27;24.50;;;11.75;;
40807;SDS011;26523;52.504;13.498;2022-12-16T13:48:25;40.95;;;12.07;;
40807;SDS011;26523;52.504;13.498;2022-12-16T13:57:18;33.00;;;13.35;;
40807;SDS011;26523;52.504;13.498;2022-12-16T14:00:05;34.35;;;12.98;;
40807;SDS011;26523;52.504;13.498;2022-12-16T14:03:00;27.40;;;11.43;;
40807;SDS011;26523;52.504;13.498;2022-12-16T14:05:52;28.58;;;10.90;;
40807;SDS011;26523;52.504;13.498;2022-12-16T14:08:38;22.20;;;10.13;;
40807;SDS011;26523;52.504;13.498;2022-12-16T14:14:28;26.55;;;10.88;;
40807;SDS011;26523;52.504;13.498;2022-12-16T14:17:22;28.85;;;10.48;;
40807;SDS011;26523;52.504;13.498;2022-12-16T14:26:01;23.52;;;11.13;;
40807;SDS011;26523;52.504;13.498;2022-12-16T14:28:46;30.58;;;11.02;;
40807;SDS011;26523;52.504;13.498;2022-12-16T14:31:39;30.35;;;12.45;;
40807;SDS011;26523;52.504;13.498;2022-12-16T14:34:34;28.25;;;13.15;;
40807;SDS011;26523;52.504;13.498;2022-12-16T14:37:20;31.85;;;12.63;;
40807;SDS011;26523;52.504;13.498;2022-12-16T14:40:20;31.05;;;12.70;;
40807;SDS011;26523;52.504;13.498;2022-12-16T14:43:10;38.95;;;13.85;;
40807;SDS011;26523;52.504;13.498;2022-12-16T14:46:03;35.55;;;12.35;;
40807;SDS011;26523;52.504;13.498;2022-12-16T14:48:48;26.70;;;10.20;;
40807;SDS011;26523;52.504;13.498;2022-12-16T14:51:37;44.83;;;12.43;;
40807;SDS011;26523;52.504;13.498;2022-12-16T14:54:38;36.57;;;14.23;;
40807;SDS011;26523;52.504;13.498;2022-12-16T14:57:29;32.22;;;12.75;;
40807;SDS011;26523;52.504;13.498;2022-12-16T15:00:16;31.90;;;12.70;;
40807;SDS011;26523;52.504;13.498;2022-12-16T15:03:14;41.05;;;13.48;;
40807;SDS011;26523;52.504;13.498;2022-12-16T15:06:04;36.65;;;11.30;;
40807;SDS011;26523;52.504;13.498;2022-12-16T15:08:57;32.33;;;11.90;;
40807;SDS011;26523;52.504;13.498;2022-12-16T15:11:46;29.23;;;11.70;;
40807;SDS011;26523;52.504;13.498;2022-12-16T15:14:32;34.08;;;12.85;;
40807;SDS011;26523;52.504;13.498;2022-12-16T15:17:20;31.95;;;14.05;;
40807;SDS011;26523;52.504;13.498;2022-12-16T15:20:13;31.38;;;11.02;;
40807;SDS011;26523;52.504;13.498;2022-12-16T15:23:09;31.33;;;13.30;;
40807;SDS011;26523;52.504;13.498;2022-12-16T15:26:00;25.83;;;11.05;;
40807;SDS011;26523;52.504;13.498;2022-12-16T15:28:44;31.88;;;12.55;;
40807;SDS011;26523;52.504;13.498;2022-12-16T15:31:32;33.28;;;11.15;;
40807;SDS011;26523;52.504;13.498;2022-12-16T15:40:28;31.65;;;12.32;;
40807;SDS011;26523;52.504;13.498;2022-12-16T15:46:28;26.83;;;11.93;;
40807;SDS011;26523;52.504;13.498;2022-12-16T15:49:24;35.17;;;15.23;;
40807;SDS011;26523;52.504;13.498;2022-12-16T15:55:21;30.45;;;13.65;;
40807;SDS011;26523;52.504;13.498;2022-12-16T16:01:11;33.53;;;12.98;;
40807;SDS011;26523;52.504;13.498;2022-12-16T16:03:58;39.85;;;13.25;;
40807;SDS011;26523;52.504;13.498;2022-12-16T16:06:49;29.63;;;12.30;;
40807;SDS011;26523;52.504;13.498;2022-12-16T16:09:35;35.08;;;13.25;;
40807;SDS011;26523;52.504;13.498;2022-12-16T16:12:21;34.13;;;11.57;;
40807;SDS011;26523;52.504;13.498;2022-12-16T16:15:08;26.52;;;11.43;;
40807;SDS011;26523;52.504;13.498;2022-12-16T16:17:55;33.75;;;13.05;;
40807;SDS011;26523;52.504;13.498;2022-12-16T16:20:41;35.33;;;13.20;;
40807;SDS011;26523;52.504;13.498;2022-12-16T16:23:26;45.50;;;13.05;;
40807;SDS011;26523;52.504;13.498;2022-12-16T16:26:12;29.65;;;12.32;;
40807;SDS011;26523;52.504;13.498;2022-12-16T16:28:58;32.33;;;13.60;;
40807;SDS011;26523;52.504;13.498;2022-12-16T16:31:42;29.58;;;12.73;;
40807;SDS011;26523;52.504;13.498;2022-12-16T16:34:27;33.47;;;12.20;;
40807;SDS011;26523;52.504;13.498;2022-12-16T16:37:15;43.40;;;11.40;;
40807;SDS011;26523;52.504;13.498;2022-12-16T16:40:14;35.58;;;13.70;;
40807;SDS011;26523;52.504;13.498;2022-12-16T16:43:04;35.10;;;12.85;;
40807;SDS011;26523;52.504;13.498;2022-12-16T16:45:51;26.65;;;10.43;;
40807;SDS011;26523;52.504;13.498;2022-12-16T16:48:36;35.10;;;13.18;;
40807;SDS011;26523;52.504;13.498;2022-12-16T16:51:21;27.70;;;12.48;;
40807;SDS011;26523;52.504;13.498;2022-12-16T16:54:05;31.45;;;10.13;;
40807;SDS011;26523;52.504;13.498;2022-12-16T16:56:50;25.85;;;11.35;;
40807;SDS011;26523;52.504;13.498;2022-12-16T16:59:34;30.95;;;12.40;;
40807;SDS011;26523;52.504;13.498;2022-12-16T17:02:20;42.80;;;13.82;;
40807;SDS011;26523;52.504;13.498;2022-12-16T17:05:06;34.78;;;12.63;;
40807;SDS011;26523;52.504;13.498;2022-12-16T17:07:50;19.38;;;11.93;;
40807;SDS011;26523;52.504;13.498;2022-12-16T17:10:34;30.13;;;12.90;;
40807;SDS011;26523;52.504;13.498;2022-12-16T17:13:19;41.83;;;13.57;;
40807;SDS011;26523;52.504;13.498;2022-12-16T17:16:03;34.85;;;13.43;;
40807;SDS011;26523;52.504;13.498;2022-12-16T17:18:48;31.90;;;13.70;;
40807;SDS011;26523;52.504;13.498;2022-12-16T17:21:32;33.03;;;12.38;;
40807;SDS011;26523;52.504;13.498;2022-12-16T17:24:17;32.78;;;14.43;;
40807;SDS011;26523;52.504;13.498;2022-12-16T17:27:17;39.40;;;13.88;;
40807;SDS011;26523;52.504;13.498;2022-12-16T17:30:04;39.25;;;14.80;;
40807;SDS011;26523;52.504;13.498;2022-12-16T17:33:00;28.58;;;11.80;;
40807;SDS011;26523;52.504;13.498;2022-12-16T17:35:46;35.15;;;14.18;;
40807;SDS011;26523;52.504;13.498;2022-12-16T17:38:37;34.60;;;13.55;;
40807;SDS011;26523;52.504;13.498;2022-12-16T17:41:23;45.97;;;15.18;;
40807;SDS011;26523;52.504;13.498;2022-12-16T17:44:09;34.42;;;14.35;;
40807;SDS011;26523;52.504;13.498;2022-12-16T17:46:53;39.95;;;12.77;;
40807;SDS011;26523;52.504;13.498;2022-12-16T17:49:37;40.35;;;13.10;;
40807;SDS011;26523;52.504;13.498;2022-12-16T17:52:22;30.42;;;15.00;;
40807;SDS011;26523;52.504;13.498;2022-12-16T17:55:07;29.63;;;14.10;;
40807;SDS011;26523;52.504;13.498;2022-12-16T17:57:52;36.90;;;15.95;;
40807;SDS011;26523;52.504;13.498;2022-12-16T18:00:36;38.65;;;12.23;;
40807;SDS011;26523;52.504;13.498;2022-12-16T18:03:20;35.40;;;12.48;;
40807;SDS011;26523;52.504;13.498;2022-12-16T18:06:04;48.58;;;15.27;;
40807;SDS011;26523;52.504;13.498;2022-12-16T18:08:49;37.25;;;14.98;;
40807;SDS011;26523;52.504;13.498;2022-12-16T18:11:33;40.50;;;14.57;;
40807;SDS011;26523;52.504;13.498;2022-12-16T18:14:17;37.00;;;14.20;;
40807;SDS011;26523;52.504;13.498;2022-12-16T18:17:01;21.90;;;9.55;;
40807;SDS011;26523;52.504;13.498;2022-12-16T18:19:45;46.47;;;15.95;;
40807;SDS011;26523;52.504;13.498;2022-12-16T18:22:29;36.78;;;15.23;;
40807;SDS011;26523;52.504;13.498;2022-12-16T18:25:13;41.15;;;14.00;;
40807;SDS011;26523;52.504;13.498;2022-12-16T18:27:58;40.10;;;14.43;;
40807;SDS011;26523;52.504;13.498;2022-12-16T18:30:42;40.47;;;15.45;;
40807;SDS011;26523;52.504;13.498;2022-12-16T18:33:26;32.33;;;12.82;;
40807;SDS011;26523;52.504;13.498;2022-12-16T18:36:11;39.92;;;14.13;;
40807;SDS011;26523;52.504;13.498;2022-12-16T18:38:55;39.65;;;14.57;;
40807;SDS011;26523;52.504;13.498;2022-12-16T18:41:40;33.38;;;14.25;;
40807;SDS011;26523;52.504;13.498;2022-12-16T18:44:26;30.42;;;12.32;;
40807;SDS011;26523;52.504;13.498;2022-12-16T18:49:55;43.83;;;14.80;;